sensor_id;sensor_type;location;lat;lon;timestamp;P1;durP1;ratioP1;P2;durP2;ratioP2
35245;SDS011;21379;50.962;6.960;2022-10-30T00:00:51;5.50;;;3.35;;
35245;SDS011;21379;50.962;6.960;2022-10-30T00:03:18;7.60;;;3.45;;
35245;SDS011;21379;50.962;6.960;2022-10-30T00:05:45;8.80;;;3.75;;
35245;SDS011;21379;50.962;6.960;2022-10-30T00:08:16;7.70;;;3.13;;
35245;SDS011;21379;50.962;6.960;2022-10-30T00:10:45;14.50;;;3.72;;
35245;SDS011;21379;50.962;6.960;2022-10-30T00:13:14;10.88;;;3.35;;
35245;SDS011;21379;50.962;6.960;2022-10-30T00:15:45;6.43;;;3.63;;
35245;SDS011;21379;50.962;6.960;2022-10-30T00:18:13;7.55;;;3.45;;
35245;SDS011;21379;50.962;6.960;2022-10-30T00:20:40;12.05;;;3.00;;
35245;SDS011;21379;50.962;6.960;2022-10-30T00:23:06;14.32;;;3.35;;
35245;SDS011;21379;50.962;6.960;2022-10-30T00:25:33;14.85;;;3.58;;
35245;SDS011;21379;50.962;6.960;2022-10-30T00:28:02;12.57;;;3.47;;
35245;SDS011;21379;50.962;6.960;2022-10-30T00:30:29;12.43;;;3.53;;
35245;SDS011;21379;50.962;6.960;2022-10-30T00:32:56;7.90;;;2.95;;
35245;SDS011;21379;50.962;6.960;2022-10-30T00:35:22;9.38;;;3.15;;
35245;SDS011;21379;50.962;6.960;2022-10-30T00:37:49;7.18;;;2.88;;
35245;SDS011;21379;50.962;6.960;2022-10-30T00:40:16;9.13;;;3.00;;
35245;SDS011;21379;50.962;6.960;2022-10-30T00:42:43;12.68;;;3.22;;
35245;SDS011;21379;50.962;6.960;2022-10-30T00:45:12;5.22;;;3.20;;
35245;SDS011;21379;50.962;6.960;2022-10-30T00:47:41;8.68;;;3.50;;
35245;SDS011;21379;50.962;6.960;2022-10-30T00:50:11;8.48;;;3.05;;
35245;SDS011;21379;50.962;6.960;2022-10-30T00:52:43;7.18;;;2.83;;
35245;SDS011;21379;50.962;6.960;2022-10-30T00:55:16;5.80;;;2.83;;
35245;SDS011;21379;50.962;6.960;2022-10-30T00:57:46;9.68;;;2.97;;
35245;SDS011;21379;50.962;6.960;2022-10-30T01:00:16;14.20;;;3.08;;
35245;SDS011;21379;50.962;6.960;2022-10-30T01:02:45;6.72;;;3.00;;
35245;SDS011;21379;50.962;6.960;2022-10-30T01:05:14;6.90;;;3.50;;
35245;SDS011;21379;50.962;6.960;2022-10-30T01:07:43;15.93;;;3.55;;
35245;SDS011;21379;50.962;6.960;2022-10-30T01:10:11;7.38;;;2.80;;
35245;SDS011;21379;50.962;6.960;2022-10-30T01:12:39;7.25;;;3.53;;
35245;SDS011;21379;50.962;6.960;2022-10-30T01:15:09;10.23;;;3.17;;
35245;SDS011;21379;50.962;6.960;2022-10-30T01:17:45;22.52;;;4.13;;
35245;SDS011;21379;50.962;6.960;2022-10-30T01:20:26;10.77;;;2.95;;
35245;SDS011;21379;50.962;6.960;2022-10-30T01:23:08;7.35;;;3.83;;
35245;SDS011;21379;50.962;6.960;2022-10-30T01:25:44;8.48;;;3.38;;
35245;SDS011;21379;50.962;6.960;2022-10-30T01:28:26;11.48;;;2.90;;
35245;SDS011;21379;50.962;6.960;2022-10-30T01:31:02;13.02;;;3.97;;
35245;SDS011;21379;50.962;6.960;2022-10-30T01:33:44;13.02;;;3.35;;
35245;SDS011;21379;50.962;6.960;2022-10-30T01:36:20;7.40;;;3.42;;
35245;SDS011;21379;50.962;6.960;2022-10-30T01:38:53;9.43;;;3.50;;
35245;SDS011;21379;50.962;6.960;2022-10-30T01:41:23;10.18;;;4.55;;
35245;SDS011;21379;50.962;6.960;2022-10-30T01:43:52;8.35;;;3.67;;
35245;SDS011;21379;50.962;6.960;2022-10-30T01:46:33;9.05;;;3.10;;
35245;SDS011;21379;50.962;6.960;2022-10-30T01:49:18;9.27;;;3.25;;
35245;SDS011;21379;50.962;6.960;2022-10-30T01:52:10;8.23;;;2.95;;
35245;SDS011;21379;50.962;6.960;2022-10-30T01:54:45;9.57;;;3.53;;
35245;SDS011;21379;50.962;6.960;2022-10-30T01:57:21;12.73;;;3.78;;
35245;SDS011;21379;50.962;6.960;2022-10-30T01:59:57;10.77;;;3.28;;
35245;SDS011;21379;50.962;6.960;2022-10-30T02:02:27;10.10;;;3.65;;
35245;SDS011;21379;50.962;6.960;2022-10-30T02:04:56;11.60;;;3.35;;
35245;SDS011;21379;50.962;6.960;2022-10-30T02:07:23;6.80;;;3.38;;
35245;SDS011;21379;50.962;6.960;2022-10-30T02:09:50;11.25;;;3.17;;
35245;SDS011;21379;50.962;6.960;2022-10-30T02:12:19;9.20;;;3.50;;
35245;SDS011;21379;50.962;6.960;2022-10-30T02:14:47;7.82;;;3.10;;
35245;SDS011;21379;50.962;6.960;2022-10-30T02:17:16;8.52;;;3.45;;
35245;SDS011;21379;50.962;6.960;2022-10-30T02:19:44;12.95;;;3.50;;
35245;SDS011;21379;50.962;6.960;2022-10-30T02:22:13;7.75;;;4.05;;
35245;SDS011;21379;50.962;6.960;2022-10-30T02:24:40;6.78;;;3.00;;
35245;SDS011;21379;50.962;6.960;2022-10-30T02:27:07;12.20;;;3.05;;
35245;SDS011;21379;50.962;6.960;2022-10-30T02:29:34;8.10;;;3.63;;
35245;SDS011;21379;50.962;6.960;2022-10-30T02:32:01;11.45;;;3.20;;
35245;SDS011;21379;50.962;6.960;2022-10-30T02:34:28;8.25;;;3.88;;
35245;SDS011;21379;50.962;6.960;2022-10-30T02:36:55;6.25;;;3.50;;
35245;SDS011;21379;50.962;6.960;2022-10-30T02:39:23;8.75;;;3.83;;
35245;SDS011;21379;50.962;6.960;2022-10-30T02:41:50;10.18;;;4.00;;
35245;SDS011;21379;50.962;6.960;2022-10-30T02:44:17;16.90;;;4.05;;
35245;SDS011;21379;50.962;6.960;2022-10-30T02:46:44;5.65;;;3.30;;
35245;SDS011;21379;50.962;6.960;2022-10-30T02:49:10;6.68;;;3.53;;
35245;SDS011;21379;50.962;6.960;2022-10-30T02:51:37;9.25;;;4.18;;
35245;SDS011;21379;50.962;6.960;2022-10-30T02:54:04;5.43;;;3.85;;
35245;SDS011;21379;50.962;6.960;2022-10-30T02:56:32;8.20;;;3.03;;
35245;SDS011;21379;50.962;6.960;2022-10-30T02:58:59;5.30;;;2.92;;
35245;SDS011;21379;50.962;6.960;2022-10-30T03:01:26;10.90;;;3.33;;
35245;SDS011;21379;50.962;6.960;2022-10-30T03:03:53;7.00;;;3.22;;
35245;SDS011;21379;50.962;6.960;2022-10-30T03:06:19;8.80;;;3.70;;
35245;SDS011;21379;50.962;6.960;2022-10-30T03:08:47;9.20;;;3.75;;
35245;SDS011;21379;50.962;6.960;2022-10-30T03:11:14;6.30;;;3.13;;
35245;SDS011;21379;50.962;6.960;2022-10-30T03:13:44;10.30;;;4.32;;
35245;SDS011;21379;50.962;6.960;2022-10-30T03:16:12;8.27;;;3.83;;
35245;SDS011;21379;50.962;6.960;2022-10-30T03:18:41;5.85;;;3.92;;
35245;SDS011;21379;50.962;6.960;2022-10-30T03:21:09;13.07;;;4.43;;
35245;SDS011;21379;50.962;6.960;2022-10-30T03:23:37;13.27;;;3.88;;
35245;SDS011;21379;50.962;6.960;2022-10-30T03:26:04;17.58;;;4.47;;
35245;SDS011;21379;50.962;6.960;2022-10-30T03:28:31;8.80;;;3.65;;
35245;SDS011;21379;50.962;6.960;2022-10-30T03:31:00;11.10;;;4.15;;
35245;SDS011;21379;50.962;6.960;2022-10-30T03:33:28;11.68;;;3.42;;
35245;SDS011;21379;50.962;6.960;2022-10-30T03:35:56;7.22;;;4.03;;
35245;SDS011;21379;50.962;6.960;2022-10-30T03:38:23;7.10;;;3.75;;
35245;SDS011;21379;50.962;6.960;2022-10-30T03:40:49;10.02;;;3.97;;
35245;SDS011;21379;50.962;6.960;2022-10-30T03:43:17;9.65;;;3.92;;
35245;SDS011;21379;50.962;6.960;2022-10-30T03:45:47;12.45;;;3.85;;
35245;SDS011;21379;50.962;6.960;2022-10-30T03:48:16;8.35;;;4.25;;
35245;SDS011;21379;50.962;6.960;2022-10-30T03:50:44;10.95;;;4.13;;
35245;SDS011;21379;50.962;6.960;2022-10-30T03:53:12;11.80;;;3.47;;
35245;SDS011;21379;50.962;6.960;2022-10-30T03:55:39;13.30;;;3.85;;
35245;SDS011;21379;50.962;6.960;2022-10-30T03:58:06;15.38;;;4.53;;
35245;SDS011;21379;50.962;6.960;2022-10-30T04:00:33;8.90;;;3.45;;
35245;SDS011;21379;50.962;6.960;2022-10-30T04:03:00;16.35;;;4.75;;
35245;SDS011;21379;50.962;6.960;2022-10-30T04:05:32;10.02;;;3.97;;
35245;SDS011;21379;50.962;6.960;2022-10-30T04:08:00;13.70;;;4.60;;
35245;SDS011;21379;50.962;6.960;2022-10-30T04:10:28;8.73;;;3.45;;
35245;SDS011;21379;50.962;6.960;2022-10-30T04:12:58;11.98;;;3.97;;
35245;SDS011;21379;50.962;6.960;2022-10-30T04:15:25;7.38;;;3.35;;
35245;SDS011;21379;50.962;6.960;2022-10-30T04:17:52;15.43;;;3.80;;
35245;SDS011;21379;50.962;6.960;2022-10-30T04:20:19;8.35;;;4.32;;
35245;SDS011;21379;50.962;6.960;2022-10-30T04:22:54;11.98;;;3.28;;
35245;SDS011;21379;50.962;6.960;2022-10-30T04:25:21;7.35;;;3.53;;
35245;SDS011;21379;50.962;6.960;2022-10-30T04:27:48;7.75;;;3.45;;
35245;SDS011;21379;50.962;6.960;2022-10-30T04:30:17;14.35;;;5.22;;
35245;SDS011;21379;50.962;6.960;2022-10-30T04:32:45;13.82;;;4.82;;
35245;SDS011;21379;50.962;6.960;2022-10-30T04:35:12;9.25;;;3.45;;
35245;SDS011;21379;50.962;6.960;2022-10-30T04:37:40;8.43;;;4.10;;
35245;SDS011;21379;50.962;6.960;2022-10-30T04:40:08;10.55;;;4.50;;
35245;SDS011;21379;50.962;6.960;2022-10-30T04:42:36;15.30;;;3.70;;
35245;SDS011;21379;50.962;6.960;2022-10-30T04:45:03;6.60;;;3.63;;
35245;SDS011;21379;50.962;6.960;2022-10-30T04:47:30;8.75;;;4.55;;
35245;SDS011;21379;50.962;6.960;2022-10-30T04:49:57;12.55;;;3.72;;
35245;SDS011;21379;50.962;6.960;2022-10-30T04:52:24;9.20;;;3.70;;
35245;SDS011;21379;50.962;6.960;2022-10-30T04:54:51;9.27;;;4.25;;
35245;SDS011;21379;50.962;6.960;2022-10-30T04:57:19;7.10;;;3.10;;
35245;SDS011;21379;50.962;6.960;2022-10-30T04:59:46;8.13;;;3.88;;
35245;SDS011;21379;50.962;6.960;2022-10-30T05:02:12;12.65;;;4.30;;
35245;SDS011;21379;50.962;6.960;2022-10-30T05:04:39;7.20;;;3.88;;
35245;SDS011;21379;50.962;6.960;2022-10-30T05:07:06;12.15;;;4.20;;
35245;SDS011;21379;50.962;6.960;2022-10-30T05:09:33;14.13;;;4.95;;
35245;SDS011;21379;50.962;6.960;2022-10-30T05:12:00;11.00;;;3.63;;
35245;SDS011;21379;50.962;6.960;2022-10-30T05:14:29;10.32;;;4.40;;
35245;SDS011;21379;50.962;6.960;2022-10-30T05:16:56;22.80;;;5.85;;
35245;SDS011;21379;50.962;6.960;2022-10-30T05:19:23;14.32;;;3.72;;
35245;SDS011;21379;50.962;6.960;2022-10-30T05:21:50;10.82;;;4.88;;
35245;SDS011;21379;50.962;6.960;2022-10-30T05:24:17;10.85;;;4.55;;
35245;SDS011;21379;50.962;6.960;2022-10-30T05:26:44;7.55;;;4.10;;
35245;SDS011;21379;50.962;6.960;2022-10-30T05:29:11;9.77;;;4.65;;
35245;SDS011;21379;50.962;6.960;2022-10-30T05:31:39;10.25;;;4.88;;
35245;SDS011;21379;50.962;6.960;2022-10-30T05:34:06;14.00;;;4.65;;
35245;SDS011;21379;50.962;6.960;2022-10-30T05:36:33;8.82;;;4.70;;
35245;SDS011;21379;50.962;6.960;2022-10-30T05:38:59;11.73;;;4.90;;
35245;SDS011;21379;50.962;6.960;2022-10-30T05:41:27;14.20;;;4.90;;
35245;SDS011;21379;50.962;6.960;2022-10-30T05:43:54;11.93;;;3.67;;
35245;SDS011;21379;50.962;6.960;2022-10-30T05:46:21;19.90;;;4.22;;
35245;SDS011;21379;50.962;6.960;2022-10-30T05:48:49;11.40;;;4.38;;
35245;SDS011;21379;50.962;6.960;2022-10-30T05:51:16;9.38;;;4.15;;
35245;SDS011;21379;50.962;6.960;2022-10-30T05:53:43;8.77;;;4.47;;
35245;SDS011;21379;50.962;6.960;2022-10-30T05:56:09;9.85;;;4.10;;
35245;SDS011;21379;50.962;6.960;2022-10-30T05:58:36;14.15;;;4.50;;
35245;SDS011;21379;50.962;6.960;2022-10-30T06:01:06;11.50;;;4.53;;
35245;SDS011;21379;50.962;6.960;2022-10-30T06:03:33;13.48;;;4.03;;
35245;SDS011;21379;50.962;6.960;2022-10-30T06:06:01;16.50;;;5.07;;
35245;SDS011;21379;50.962;6.960;2022-10-30T06:08:28;18.92;;;5.25;;
35245;SDS011;21379;50.962;6.960;2022-10-30T06:10:55;12.85;;;4.07;;
35245;SDS011;21379;50.962;6.960;2022-10-30T06:13:22;10.80;;;4.43;;
35245;SDS011;21379;50.962;6.960;2022-10-30T06:15:49;13.35;;;4.75;;
35245;SDS011;21379;50.962;6.960;2022-10-30T06:18:15;10.88;;;4.60;;
35245;SDS011;21379;50.962;6.960;2022-10-30T06:20:42;8.95;;;4.15;;
35245;SDS011;21379;50.962;6.960;2022-10-30T06:23:10;12.73;;;4.00;;
35245;SDS011;21379;50.962;6.960;2022-10-30T06:25:37;10.38;;;3.88;;
35245;SDS011;21379;50.962;6.960;2022-10-30T06:28:04;10.15;;;3.78;;
35245;SDS011;21379;50.962;6.960;2022-10-30T06:30:31;13.38;;;4.75;;
35245;SDS011;21379;50.962;6.960;2022-10-30T06:32:58;11.48;;;4.22;;
35245;SDS011;21379;50.962;6.960;2022-10-30T06:35:27;12.02;;;4.38;;
35245;SDS011;21379;50.962;6.960;2022-10-30T06:37:54;10.70;;;3.65;;
35245;SDS011;21379;50.962;6.960;2022-10-30T06:40:25;15.23;;;4.07;;
35245;SDS011;21379;50.962;6.960;2022-10-30T06:42:53;11.63;;;4.07;;
35245;SDS011;21379;50.962;6.960;2022-10-30T06:45:21;14.02;;;3.83;;
35245;SDS011;21379;50.962;6.960;2022-10-30T06:47:48;18.33;;;4.57;;
35245;SDS011;21379;50.962;6.960;2022-10-30T06:50:16;10.63;;;4.70;;
35245;SDS011;21379;50.962;6.960;2022-10-30T06:52:44;13.77;;;4.05;;
35245;SDS011;21379;50.962;6.960;2022-10-30T06:55:12;13.85;;;4.90;;
35245;SDS011;21379;50.962;6.960;2022-10-30T06:57:40;12.48;;;3.92;;
35245;SDS011;21379;50.962;6.960;2022-10-30T07:00:07;16.30;;;4.78;;
35245;SDS011;21379;50.962;6.960;2022-10-30T07:02:35;12.20;;;4.82;;
35245;SDS011;21379;50.962;6.960;2022-10-30T07:05:02;8.63;;;3.50;;
35245;SDS011;21379;50.962;6.960;2022-10-30T07:07:29;10.00;;;4.15;;
35245;SDS011;21379;50.962;6.960;2022-10-30T07:09:56;12.95;;;3.83;;
35245;SDS011;21379;50.962;6.960;2022-10-30T07:12:23;11.23;;;3.58;;
35245;SDS011;21379;50.962;6.960;2022-10-30T07:14:51;6.53;;;4.30;;
35245;SDS011;21379;50.962;6.960;2022-10-30T07:17:18;9.23;;;3.78;;
35245;SDS011;21379;50.962;6.960;2022-10-30T07:19:44;15.18;;;4.70;;
35245;SDS011;21379;50.962;6.960;2022-10-30T07:22:11;9.98;;;4.55;;
35245;SDS011;21379;50.962;6.960;2022-10-30T07:24:38;10.25;;;4.28;;
35245;SDS011;21379;50.962;6.960;2022-10-30T07:27:05;7.63;;;3.97;;
35245;SDS011;21379;50.962;6.960;2022-10-30T07:29:32;9.30;;;4.13;;
35245;SDS011;21379;50.962;6.960;2022-10-30T07:32:00;8.68;;;4.00;;
35245;SDS011;21379;50.962;6.960;2022-10-30T07:34:27;10.07;;;3.75;;
35245;SDS011;21379;50.962;6.960;2022-10-30T07:36:53;8.63;;;4.20;;
35245;SDS011;21379;50.962;6.960;2022-10-30T07:39:20;10.35;;;3.72;;
35245;SDS011;21379;50.962;6.960;2022-10-30T07:41:47;11.90;;;4.10;;
35245;SDS011;21379;50.962;6.960;2022-10-30T07:44:15;8.82;;;3.85;;
35245;SDS011;21379;50.962;6.960;2022-10-30T07:46:41;23.15;;;4.40;;
35245;SDS011;21379;50.962;6.960;2022-10-30T07:49:10;8.10;;;3.80;;
35245;SDS011;21379;50.962;6.960;2022-10-30T07:51:36;17.42;;;4.75;;
35245;SDS011;21379;50.962;6.960;2022-10-30T07:54:03;10.48;;;4.75;;
35245;SDS011;21379;50.962;6.960;2022-10-30T07:56:30;10.63;;;4.65;;
35245;SDS011;21379;50.962;6.960;2022-10-30T07:58:57;11.13;;;4.85;;
35245;SDS011;21379;50.962;6.960;2022-10-30T08:01:24;7.40;;;3.80;;
35245;SDS011;21379;50.962;6.960;2022-10-30T08:03:51;10.77;;;3.90;;
35245;SDS011;21379;50.962;6.960;2022-10-30T08:06:19;10.43;;;4.78;;
35245;SDS011;21379;50.962;6.960;2022-10-30T08:08:46;9.13;;;3.75;;
35245;SDS011;21379;50.962;6.960;2022-10-30T08:11:12;14.35;;;4.60;;
35245;SDS011;21379;50.962;6.960;2022-10-30T08:13:39;10.82;;;4.03;;
35245;SDS011;21379;50.962;6.960;2022-10-30T08:16:06;12.77;;;4.13;;
35245;SDS011;21379;50.962;6.960;2022-10-30T08:18:33;10.63;;;3.72;;
35245;SDS011;21379;50.962;6.960;2022-10-30T08:21:00;16.75;;;4.53;;
35245;SDS011;21379;50.962;6.960;2022-10-30T08:23:28;12.55;;;4.20;;
35245;SDS011;21379;50.962;6.960;2022-10-30T08:25:56;6.53;;;3.17;;
35245;SDS011;21379;50.962;6.960;2022-10-30T08:28:25;8.23;;;3.53;;
35245;SDS011;21379;50.962;6.960;2022-10-30T08:30:52;11.23;;;3.65;;
35245;SDS011;21379;50.962;6.960;2022-10-30T08:33:19;14.20;;;4.15;;
35245;SDS011;21379;50.962;6.960;2022-10-30T08:35:46;7.13;;;3.70;;
35245;SDS011;21379;50.962;6.960;2022-10-30T08:38:14;10.45;;;3.35;;
35245;SDS011;21379;50.962;6.960;2022-10-30T08:40:43;6.70;;;3.30;;
35245;SDS011;21379;50.962;6.960;2022-10-30T08:43:10;12.60;;;4.45;;
35245;SDS011;21379;50.962;6.960;2022-10-30T08:45:37;9.73;;;3.72;;
35245;SDS011;21379;50.962;6.960;2022-10-30T08:48:04;10.88;;;4.43;;
35245;SDS011;21379;50.962;6.960;2022-10-30T08:50:32;6.05;;;3.13;;
35245;SDS011;21379;50.962;6.960;2022-10-30T08:53:00;11.40;;;3.85;;
35245;SDS011;21379;50.962;6.960;2022-10-30T08:55:27;6.85;;;3.08;;
35245;SDS011;21379;50.962;6.960;2022-10-30T08:57:55;10.07;;;3.65;;
35245;SDS011;21379;50.962;6.960;2022-10-30T09:00:22;7.47;;;3.47;;
35245;SDS011;21379;50.962;6.960;2022-10-30T09:02:49;9.35;;;3.10;;
35245;SDS011;21379;50.962;6.960;2022-10-30T09:05:16;7.60;;;3.53;;
35245;SDS011;21379;50.962;6.960;2022-10-30T09:07:43;10.30;;;2.83;;
35245;SDS011;21379;50.962;6.960;2022-10-30T09:10:10;12.55;;;3.63;;
35245;SDS011;21379;50.962;6.960;2022-10-30T09:12:38;7.45;;;3.10;;
35245;SDS011;21379;50.962;6.960;2022-10-30T09:15:06;13.25;;;3.72;;
35245;SDS011;21379;50.962;6.960;2022-10-30T09:17:33;10.48;;;4.25;;
35245;SDS011;21379;50.962;6.960;2022-10-30T09:20:00;8.48;;;2.88;;
35245;SDS011;21379;50.962;6.960;2022-10-30T09:22:27;9.40;;;3.00;;
35245;SDS011;21379;50.962;6.960;2022-10-30T09:24:54;10.13;;;3.58;;
35245;SDS011;21379;50.962;6.960;2022-10-30T09:27:21;10.68;;;3.22;;
35245;SDS011;21379;50.962;6.960;2022-10-30T09:29:48;10.23;;;3.10;;
35245;SDS011;21379;50.962;6.960;2022-10-30T09:32:16;6.82;;;2.78;;
35245;SDS011;21379;50.962;6.960;2022-10-30T09:34:43;11.60;;;3.20;;
35245;SDS011;21379;50.962;6.960;2022-10-30T09:37:10;12.95;;;2.88;;
35245;SDS011;21379;50.962;6.960;2022-10-30T09:39:37;5.78;;;3.13;;
35245;SDS011;21379;50.962;6.960;2022-10-30T09:42:08;5.53;;;3.08;;
35245;SDS011;21379;50.962;6.960;2022-10-30T09:45:01;6.07;;;2.53;;
35245;SDS011;21379;50.962;6.960;2022-10-30T09:47:37;4.10;;;2.60;;
35245;SDS011;21379;50.962;6.960;2022-10-30T09:50:19;7.38;;;2.80;;
35245;SDS011;21379;50.962;6.960;2022-10-30T09:52:54;7.20;;;2.60;;
35245;SDS011;21379;50.962;6.960;2022-10-30T09:55:30;5.30;;;3.42;;
35245;SDS011;21379;50.962;6.960;2022-10-30T09:58:10;11.15;;;3.05;;
35245;SDS011;21379;50.962;6.960;2022-10-30T10:00:47;10.23;;;2.78;;
35245;SDS011;21379;50.962;6.960;2022-10-30T10:03:25;8.63;;;3.42;;
35245;SDS011;21379;50.962;6.960;2022-10-30T10:06:02;9.20;;;2.97;;
35245;SDS011;21379;50.962;6.960;2022-10-30T10:08:33;10.52;;;3.40;;
35245;SDS011;21379;50.962;6.960;2022-10-30T10:11:07;9.63;;;3.53;;
35245;SDS011;21379;50.962;6.960;2022-10-30T10:13:41;8.25;;;2.60;;
35245;SDS011;21379;50.962;6.960;2022-10-30T10:16:13;11.13;;;2.78;;
35245;SDS011;21379;50.962;6.960;2022-10-30T10:18:46;8.80;;;3.33;;
35245;SDS011;21379;50.962;6.960;2022-10-30T10:21:19;6.88;;;3.00;;
35245;SDS011;21379;50.962;6.960;2022-10-30T10:23:49;10.07;;;2.72;;
35245;SDS011;21379;50.962;6.960;2022-10-30T10:26:22;8.00;;;2.40;;
35245;SDS011;21379;50.962;6.960;2022-10-30T10:29:07;6.95;;;3.10;;
35245;SDS011;21379;50.962;6.960;2022-10-30T10:31:49;10.05;;;2.70;;
35245;SDS011;21379;50.962;6.960;2022-10-30T10:34:41;6.18;;;2.85;;
35245;SDS011;21379;50.962;6.960;2022-10-30T10:37:19;7.05;;;3.10;;
35245;SDS011;21379;50.962;6.960;2022-10-30T10:39:59;15.02;;;3.53;;
35245;SDS011;21379;50.962;6.960;2022-10-30T10:42:37;8.15;;;2.80;;
35245;SDS011;21379;50.962;6.960;2022-10-30T10:45:19;4.95;;;2.78;;
35245;SDS011;21379;50.962;6.960;2022-10-30T10:47:56;7.57;;;2.38;;
35245;SDS011;21379;50.962;6.960;2022-10-30T10:50:46;11.38;;;2.90;;
35245;SDS011;21379;50.962;6.960;2022-10-30T10:53:17;10.65;;;2.22;;
35245;SDS011;21379;50.962;6.960;2022-10-30T10:55:48;7.47;;;2.80;;
35245;SDS011;21379;50.962;6.960;2022-10-30T10:58:21;4.20;;;2.45;;
35245;SDS011;21379;50.962;6.960;2022-10-30T11:00:52;7.20;;;3.08;;
35245;SDS011;21379;50.962;6.960;2022-10-30T11:03:24;11.25;;;2.70;;
35245;SDS011;21379;50.962;6.960;2022-10-30T11:05:57;10.98;;;2.83;;
35245;SDS011;21379;50.962;6.960;2022-10-30T11:08:30;8.93;;;2.45;;
35245;SDS011;21379;50.962;6.960;2022-10-30T11:10:59;10.45;;;2.30;;
35245;SDS011;21379;50.962;6.960;2022-10-30T11:13:28;6.57;;;2.33;;
35245;SDS011;21379;50.962;6.960;2022-10-30T11:15:58;12.60;;;2.70;;
35245;SDS011;21379;50.962;6.960;2022-10-30T11:18:31;9.57;;;2.70;;
35245;SDS011;21379;50.962;6.960;2022-10-30T11:21:02;13.13;;;2.70;;
35245;SDS011;21379;50.962;6.960;2022-10-30T11:23:37;8.60;;;2.65;;
35245;SDS011;21379;50.962;6.960;2022-10-30T11:26:23;8.93;;;3.05;;
35245;SDS011;21379;50.962;6.960;2022-10-30T11:28:56;6.07;;;2.17;;
35245;SDS011;21379;50.962;6.960;2022-10-30T11:31:27;8.50;;;2.67;;
35245;SDS011;21379;50.962;6.960;2022-10-30T11:34:11;8.18;;;3.03;;
35245;SDS011;21379;50.962;6.960;2022-10-30T11:36:41;9.30;;;2.45;;
35245;SDS011;21379;50.962;6.960;2022-10-30T11:39:08;7.28;;;2.40;;
35245;SDS011;21379;50.962;6.960;2022-10-30T11:41:36;11.77;;;2.85;;
35245;SDS011;21379;50.962;6.960;2022-10-30T11:44:04;8.60;;;3.00;;
35245;SDS011;21379;50.962;6.960;2022-10-30T11:46:31;5.35;;;2.88;;
35245;SDS011;21379;50.962;6.960;2022-10-30T11:49:00;5.53;;;2.67;;
35245;SDS011;21379;50.962;6.960;2022-10-30T11:51:31;10.43;;;2.92;;
35245;SDS011;21379;50.962;6.960;2022-10-30T11:54:03;7.15;;;2.13;;
35245;SDS011;21379;50.962;6.960;2022-10-30T11:56:30;9.50;;;3.15;;
35245;SDS011;21379;50.962;6.960;2022-10-30T11:58:59;8.52;;;2.45;;
35245;SDS011;21379;50.962;6.960;2022-10-30T12:01:29;7.15;;;2.90;;
35245;SDS011;21379;50.962;6.960;2022-10-30T12:04:12;6.57;;;2.63;;
35245;SDS011;21379;50.962;6.960;2022-10-30T12:06:40;11.38;;;2.75;;
35245;SDS011;21379;50.962;6.960;2022-10-30T12:09:11;5.32;;;2.53;;
35245;SDS011;21379;50.962;6.960;2022-10-30T12:11:40;3.78;;;1.95;;
35245;SDS011;21379;50.962;6.960;2022-10-30T12:14:12;5.82;;;2.28;;
35245;SDS011;21379;50.962;6.960;2022-10-30T12:16:43;6.15;;;2.60;;
35245;SDS011;21379;50.962;6.960;2022-10-30T12:19:12;4.53;;;2.53;;
35245;SDS011;21379;50.962;6.960;2022-10-30T12:21:42;5.43;;;2.28;;
35245;SDS011;21379;50.962;6.960;2022-10-30T12:24:14;5.57;;;2.40;;
35245;SDS011;21379;50.962;6.960;2022-10-30T12:26:44;5.15;;;2.42;;
35245;SDS011;21379;50.962;6.960;2022-10-30T12:29:14;4.78;;;1.92;;
35245;SDS011;21379;50.962;6.960;2022-10-30T12:31:44;6.68;;;2.75;;
35245;SDS011;21379;50.962;6.960;2022-10-30T12:34:24;6.38;;;2.30;;
35245;SDS011;21379;50.962;6.960;2022-10-30T12:36:58;3.75;;;2.53;;
35245;SDS011;21379;50.962;6.960;2022-10-30T12:39:32;10.52;;;2.55;;
35245;SDS011;21379;50.962;6.960;2022-10-30T12:42:23;9.05;;;2.72;;
35245;SDS011;21379;50.962;6.960;2022-10-30T12:44:52;7.00;;;2.50;;
35245;SDS011;21379;50.962;6.960;2022-10-30T12:47:28;4.55;;;2.10;;
35245;SDS011;21379;50.962;6.960;2022-10-30T12:50:02;4.95;;;2.08;;
35245;SDS011;21379;50.962;6.960;2022-10-30T12:52:38;4.05;;;2.08;;
35245;SDS011;21379;50.962;6.960;2022-10-30T12:55:15;8.95;;;2.20;;
35245;SDS011;21379;50.962;6.960;2022-10-30T12:57:46;8.05;;;2.40;;
35245;SDS011;21379;50.962;6.960;2022-10-30T13:00:19;7.07;;;3.07;;
35245;SDS011;21379;50.962;6.960;2022-10-30T13:02:49;5.20;;;2.45;;
35245;SDS011;21379;50.962;6.960;2022-10-30T13:05:27;5.82;;;2.72;;
35245;SDS011;21379;50.962;6.960;2022-10-30T13:08:05;13.75;;;7.05;;
35245;SDS011;21379;50.962;6.960;2022-10-30T13:10:40;5.65;;;2.33;;
35245;SDS011;21379;50.962;6.960;2022-10-30T13:13:12;8.15;;;2.13;;
35245;SDS011;21379;50.962;6.960;2022-10-30T13:15:43;7.50;;;2.15;;
35245;SDS011;21379;50.962;6.960;2022-10-30T13:18:15;7.00;;;2.30;;
35245;SDS011;21379;50.962;6.960;2022-10-30T13:21:04;12.70;;;3.20;;
35245;SDS011;21379;50.962;6.960;2022-10-30T13:23:45;5.28;;;2.42;;
35245;SDS011;21379;50.962;6.960;2022-10-30T13:26:23;3.20;;;1.80;;
35245;SDS011;21379;50.962;6.960;2022-10-30T13:28:58;7.53;;;2.22;;
35245;SDS011;21379;50.962;6.960;2022-10-30T13:34:06;6.15;;;2.00;;
35245;SDS011;21379;50.962;6.960;2022-10-30T13:36:45;7.43;;;2.00;;
35245;SDS011;21379;50.962;6.960;2022-10-30T13:39:18;8.85;;;2.40;;
35245;SDS011;21379;50.962;6.960;2022-10-30T13:41:56;10.25;;;2.50;;
35245;SDS011;21379;50.962;6.960;2022-10-30T13:44:32;7.95;;;1.92;;
35245;SDS011;21379;50.962;6.960;2022-10-30T13:47:10;8.77;;;2.08;;
35245;SDS011;21379;50.962;6.960;2022-10-30T13:49:55;4.60;;;2.00;;
35245;SDS011;21379;50.962;6.960;2022-10-30T13:52:42;5.38;;;1.90;;
35245;SDS011;21379;50.962;6.960;2022-10-30T13:55:16;4.50;;;1.98;;
35245;SDS011;21379;50.962;6.960;2022-10-30T13:57:48;5.82;;;1.60;;
35245;SDS011;21379;50.962;6.960;2022-10-30T14:00:19;9.13;;;2.80;;
35245;SDS011;21379;50.962;6.960;2022-10-30T14:02:55;17.90;;;5.93;;
35245;SDS011;21379;50.962;6.960;2022-10-30T14:05:37;4.30;;;1.80;;
35245;SDS011;21379;50.962;6.960;2022-10-30T14:08:12;7.97;;;1.98;;
35245;SDS011;21379;50.962;6.960;2022-10-30T14:10:50;4.72;;;1.65;;
35245;SDS011;21379;50.962;6.960;2022-10-30T14:13:23;8.18;;;2.05;;
35245;SDS011;21379;50.962;6.960;2022-10-30T14:15:52;6.15;;;2.58;;
35245;SDS011;21379;50.962;6.960;2022-10-30T14:18:25;6.65;;;2.17;;
35245;SDS011;21379;50.962;6.960;2022-10-30T14:20:54;11.75;;;2.75;;
35245;SDS011;21379;50.962;6.960;2022-10-30T14:23:22;4.70;;;1.83;;
35245;SDS011;21379;50.962;6.960;2022-10-30T14:26:11;4.03;;;1.80;;
35245;SDS011;21379;50.962;6.960;2022-10-30T14:28:41;3.88;;;1.63;;
35245;SDS011;21379;50.962;6.960;2022-10-30T14:31:10;3.95;;;1.67;;
35245;SDS011;21379;50.962;6.960;2022-10-30T14:33:41;4.57;;;2.50;;
35245;SDS011;21379;50.962;6.960;2022-10-30T14:42:04;5.43;;;2.22;;
35245;SDS011;21379;50.962;6.960;2022-10-30T14:44:49;7.32;;;2.55;;
35245;SDS011;21379;50.962;6.960;2022-10-30T14:47:30;9.65;;;3.35;;
35245;SDS011;21379;50.962;6.960;2022-10-30T14:50:17;4.95;;;2.30;;
35245;SDS011;21379;50.962;6.960;2022-10-30T14:53:10;5.03;;;2.20;;
35245;SDS011;21379;50.962;6.960;2022-10-30T14:55:59;9.32;;;3.78;;
35245;SDS011;21379;50.962;6.960;2022-10-30T14:58:32;7.28;;;2.65;;
35245;SDS011;21379;50.962;6.960;2022-10-30T15:04:02;9.45;;;2.35;;
35245;SDS011;21379;50.962;6.960;2022-10-30T15:06:36;5.13;;;2.33;;
35245;SDS011;21379;50.962;6.960;2022-10-30T15:09:16;6.70;;;2.53;;
35245;SDS011;21379;50.962;6.960;2022-10-30T15:11:56;5.60;;;2.13;;
35245;SDS011;21379;50.962;6.960;2022-10-30T15:14:54;2.55;;;1.55;;